Krisjanis Valdemars — V7LI9 — position and weather

sailwx.info

Track history (hours):
 
Tides and Currents Weather Stations Pressure Air Temp Water Temp Dewpoint Dewpoint Depression Visibility Wind Speed Wind Dir Waves Ship Positions

Krisjanis Valdemars

Last reported at 2014-Aug-20 04:31 UTC. Time now 2014-Aug-21 00:27 UTC.
Position N 59°36' E 023°10'.

Length 183 m; draft 11 m.

Type: Tanker. MMSI: 538002757.

Date/timePositionNaut miles runAvg speedWind from/ knotsBaromVisibWave heightAir tempDewpointWater temp
2014-Aug-20 04:31N 59°36' E 023°10'1010.9
2014-Aug-20 03:33N 59°39' E 023°30'1110.8
2014-Aug-20 02:33N 59°42' E 023°50'7411.4
2014-Aug-19 20:03N 59°59' E 026°14'611.8
2014-Aug-19 19:33N 60°00' E 026°25'1211.5
2014-Aug-19 18:32N 60°00' E 026°49'1111.1
2014-Aug-19 17:33N 60°02' E 027°11'8810.5
2014-Aug-19 09:09N 59°54' E 030°06'2 2.2
2014-Aug-19 08:04N 59°53' E 030°10'1 0.0
2014-Aug-17 15:04N 59°53' E 030°11'0 0.0
2014-Aug-17 14:33N 59°53' E 030°11'1 1.2
2014-Aug-17 13:33N 59°54' E 030°09'97 3.6
2014-Aug-16 10:31N 59°58' E 026°56'1313.3
2014-Aug-16 09:33N 59°58' E 026°31'7113.6
2014-Aug-16 04:19N 59°41' E 024°13'1013.5
2014-Aug-16 03:33N 59°38' E 023°54'1413.4
2014-Aug-16 02:30N 59°34' E 023°27'34412.6
2014-Aug-14 23:19N 55°39' E 015°40'1013.2
2014-Aug-14 22:33N 55°35' E 015°23'1313.5
2014-Aug-14 21:33N 55°30' E 015°01'1313.3
2014-Aug-14 20:33N 55°24' E 014°40'1413.5
2014-Aug-14 19:33N 55°14' E 014°24'3912.9
2014-Aug-14 16:32N 55°12' E 013°16'1313.5
2014-Aug-14 15:33N 55°15' E 012°53'1110.8
2014-Aug-14 14:33N 55°22' E 012°39'1212.2
2014-Aug-14 13:33N 55°34' E 012°42'1313.0
2014-Aug-14 12:33N 55°47' E 012°42'1414.0
2014-Aug-14 11:34N 56°01' E 012°40'1312.5
2014-Aug-14 10:33N 56°10' E 012°25'1212.1
2014-Aug-14 09:33N 56°16' E 012°07'1512.2
2014-Aug-14 08:19N 56°31' E 011°58'1013.7
2014-Aug-14 07:33N 56°41' E 011°54'1413.9
2014-Aug-14 06:33N 56°54' E 011°47'1413.5
2014-Aug-14 05:33N 57°07' E 011°38'1513.2
2014-Aug-14 04:24N 57°21' E 011°28'1112.9
2014-Aug-14 03:33N 57°31' E 011°18'1312.9
2014-Aug-14 02:34N 57°39' E 010°60'1312.8
2014-Aug-14 01:33N 57°48' E 010°42'1413.8
2014-Aug-14 00:33N 57°46' E 010°17'1414.4
2014-Aug-13 23:33N 57°43' E 009°51'27712.4
2014-Aug-13 01:15N 53°60' E 004°56'912.9
2014-Aug-13 00:33N 53°51' E 004°54'1312.9
2014-Aug-12 23:33N 53°38' E 004°51'1312.9
2014-Aug-12 22:33N 53°26' E 004°44'1313.0
2014-Aug-12 21:33N 53°14' E 004°34'1813.0
2014-Aug-12 20:10N 52°58' E 004°21'2113.3
2014-Aug-12 18:33N 52°41' E 003°60'1614.0
2014-Aug-12 17:25N 52°29' E 003°42'1514.3
2014-Aug-12 16:20N 52°18' E 003°24'1214.7
2014-Aug-12 15:33N 52°10' E 003°11'1414.2
2014-Aug-12 14:32N 51°59' E 002°55'1515.1
2014-Aug-12 13:33N 51°48' E 002°40'1514.6
2014-Aug-12 12:33N 51°37' E 002°25'1413.6
2014-Aug-12 11:32N 51°26' E 002°10'11 8.8
2014-Aug-12 10:19N 51°22' E 002°26'810.3
2014-Aug-12 09:31N 51°25' E 002°38'0 0.3
2014-Aug-12 08:32N 51°25' E 002°38'0 0.2
2014-Aug-12 07:26N 51°25' E 002°39'0 0.0
2014-Aug-12 06:20N 51°25' E 002°39'0 0.0
2014-Aug-12 05:32N 51°25' E 002°39'0 0.0
2014-Aug-12 04:20N 51°25' E 002°39'0 0.0
2014-Aug-12 03:32N 51°25' E 002°39'0 0.0
2014-Aug-12 02:32N 51°25' E 002°39'0 0.0
2014-Aug-12 01:29N 51°25' E 002°39'0 0.0
2014-Aug-12 00:30N 51°25' E 002°39'0 0.0
2014-Aug-11 23:33N 51°25' E 002°39'0 0.0
2014-Aug-11 22:33N 51°25' E 002°39'0 0.2
2014-Aug-11 21:27N 51°25' E 002°38'0 0.1
2014-Aug-11 20:26N 51°25' E 002°38'0 0.1
2014-Aug-11 19:32N 51°25' E 002°39'0 0.0
2014-Aug-11 18:32N 51°25' E 002°39'0 0.1
2014-Aug-11 17:32N 51°25' E 002°39'0 0.0
2014-Aug-11 16:29N 51°25' E 002°39'0 0.0
2014-Aug-11 15:32N 51°25' E 002°39'0 0.0
2014-Aug-11 14:32N 51°25' E 002°39'0 0.0
2014-Aug-11 13:32N 51°25' E 002°39'0 0.0
2014-Aug-11 12:29N 51°25' E 002°39'0 0.0
2014-Aug-11 11:26N 51°25' E 002°39'0 0.1
2014-Aug-11 10:23N 51°25' E 002°38'0 0.2
2014-Aug-11 09:32N 51°25' E 002°38'0 0.0
2014-Aug-11 08:32N 51°25' E 002°38'0 0.1
2014-Aug-11 07:32N 51°25' E 002°38'0 0.2
2014-Aug-11 06:32N 51°25' E 002°39'0 0.0
2014-Aug-11 05:32N 51°25' E 002°39'0 0.0
2014-Aug-11 04:17N 51°25' E 002°39'0 0.0
2014-Aug-11 03:32N 51°25' E 002°39'0 0.0
2014-Aug-11 02:32N 51°25' E 002°39'0 0.0
2014-Aug-11 01:26N 51°25' E 002°39'0 0.0
2014-Aug-11 00:29N 51°25' E 002°39'0 0.0
2014-Aug-10 23:32N 51°25' E 002°39'0 0.0
2014-Aug-10 22:32N 51°25' E 002°39'0 0.0
2014-Aug-10 21:32N 51°25' E 002°39'0 0.2
2014-Aug-10 20:23N 51°25' E 002°38'0 0.1
2014-Aug-10 19:32N 51°25' E 002°39'0 0.1
2014-Aug-10 18:32N 51°25' E 002°39'0 0.0
2014-Aug-10 17:32N 51°25' E 002°39'0 0.0
2014-Aug-10 16:33N 51°25' E 002°39'0 0.4
2014-Aug-10 15:31N 51°26' E 002°39'0 0.1
2014-Aug-10 14:28N 51°26' E 002°39'0 0.1
2014-Aug-10 13:31N 51°26' E 002°39'0 0.0
2014-Aug-10 12:32N 51°26' E 002°39'0 0.0
2014-Aug-10 11:32N 51°26' E 002°39'0 0.0
2014-Aug-10 10:28N 51°26' E 002°39'0 0.1
2014-Aug-10 09:31N 51°26' E 002°39'0 0.1
2014-Aug-10 08:31N 51°26' E 002°39'0 0.0
2014-Aug-10 06:07N 51°26' E 002°39'0 0.1
2014-Aug-10 05:25N 51°26' E 002°39'0 0.1
2014-Aug-10 04:32N 51°26' E 002°39'  
Track history (hours):
 
Tides and Currents Weather Stations Pressure Air Temp Water Temp Dewpoint Dewpoint Depression Visibility Wind Speed Wind Dir Waves Ship Positions

Krisjanis Valdemars

Last reported at 2014-Aug-20 04:31 UTC. Time now 2014-Aug-21 00:27 UTC.
Position N 59°36' E 023°10'.

Length 183 m; draft 11 m.

Type: Tanker. MMSI: 538002757.

Date/timePositionNaut miles runAvg speedWind from/ knotsBaromVisibWave heightAir tempDewpointWater temp
2014-Aug-20 04:31N 59°36' E 023°10'1010.9
2014-Aug-20 03:33N 59°39' E 023°30'1110.8
2014-Aug-20 02:33N 59°42' E 023°50'7411.4
2014-Aug-19 20:03N 59°59' E 026°14'611.8
2014-Aug-19 19:33N 60°00' E 026°25'1211.5
2014-Aug-19 18:32N 60°00' E 026°49'1111.1
2014-Aug-19 17:33N 60°02' E 027°11'8810.5
2014-Aug-19 09:09N 59°54' E 030°06'2 2.2
2014-Aug-19 08:04N 59°53' E 030°10'1 0.0
2014-Aug-17 15:04N 59°53' E 030°11'0 0.0
2014-Aug-17 14:33N 59°53' E 030°11'1 1.2
2014-Aug-17 13:33N 59°54' E 030°09'97 3.6
2014-Aug-16 10:31N 59°58' E 026°56'1313.3
2014-Aug-16 09:33N 59°58' E 026°31'7113.6
2014-Aug-16 04:19N 59°41' E 024°13'1013.5
2014-Aug-16 03:33N 59°38' E 023°54'1413.4
2014-Aug-16 02:30N 59°34' E 023°27'34412.6
2014-Aug-14 23:19N 55°39' E 015°40'1013.2
2014-Aug-14 22:33N 55°35' E 015°23'1313.5
2014-Aug-14 21:33N 55°30' E 015°01'1313.3
2014-Aug-14 20:33N 55°24' E 014°40'1413.5
2014-Aug-14 19:33N 55°14' E 014°24'3912.9
2014-Aug-14 16:32N 55°12' E 013°16'1313.5
2014-Aug-14 15:33N 55°15' E 012°53'1110.8
2014-Aug-14 14:33N 55°22' E 012°39'1212.2
2014-Aug-14 13:33N 55°34' E 012°42'1313.0
2014-Aug-14 12:33N 55°47' E 012°42'1414.0
2014-Aug-14 11:34N 56°01' E 012°40'1312.5
2014-Aug-14 10:33N 56°10' E 012°25'1212.1
2014-Aug-14 09:33N 56°16' E 012°07'1512.2
2014-Aug-14 08:19N 56°31' E 011°58'1013.7
2014-Aug-14 07:33N 56°41' E 011°54'1413.9
2014-Aug-14 06:33N 56°54' E 011°47'1413.5
2014-Aug-14 05:33N 57°07' E 011°38'1513.2
2014-Aug-14 04:24N 57°21' E 011°28'1112.9
2014-Aug-14 03:33N 57°31' E 011°18'1312.9
2014-Aug-14 02:34N 57°39' E 010°60'1312.8
2014-Aug-14 01:33N 57°48' E 010°42'1413.8
2014-Aug-14 00:33N 57°46' E 010°17'1414.4
2014-Aug-13 23:33N 57°43' E 009°51'27712.4
2014-Aug-13 01:15N 53°60' E 004°56'912.9
2014-Aug-13 00:33N 53°51' E 004°54'1312.9
2014-Aug-12 23:33N 53°38' E 004°51'1312.9
2014-Aug-12 22:33N 53°26' E 004°44'1313.0
2014-Aug-12 21:33N 53°14' E 004°34'1813.0
2014-Aug-12 20:10N 52°58' E 004°21'2113.3
2014-Aug-12 18:33N 52°41' E 003°60'1614.0
2014-Aug-12 17:25N 52°29' E 003°42'1514.3
2014-Aug-12 16:20N 52°18' E 003°24'1214.7
2014-Aug-12 15:33N 52°10' E 003°11'1414.2
2014-Aug-12 14:32N 51°59' E 002°55'1515.1
2014-Aug-12 13:33N 51°48' E 002°40'1514.6
2014-Aug-12 12:33N 51°37' E 002°25'1413.6
2014-Aug-12 11:32N 51°26' E 002°10'11 8.8
2014-Aug-12 10:19N 51°22' E 002°26'810.3
2014-Aug-12 09:31N 51°25' E 002°38'0 0.3
2014-Aug-12 08:32N 51°25' E 002°38'0 0.2
2014-Aug-12 07:26N 51°25' E 002°39'0 0.0
2014-Aug-12 06:20N 51°25' E 002°39'0 0.0
2014-Aug-12 05:32N 51°25' E 002°39'0 0.0
2014-Aug-12 04:20N 51°25' E 002°39'0 0.0
2014-Aug-12 03:32N 51°25' E 002°39'0 0.0
2014-Aug-12 02:32N 51°25' E 002°39'0 0.0
2014-Aug-12 01:29N 51°25' E 002°39'0 0.0
2014-Aug-12 00:30N 51°25' E 002°39'0 0.0
2014-Aug-11 23:33N 51°25' E 002°39'0 0.0
2014-Aug-11 22:33N 51°25' E 002°39'0 0.2
2014-Aug-11 21:27N 51°25' E 002°38'0 0.1
2014-Aug-11 20:26N 51°25' E 002°38'0 0.1
2014-Aug-11 19:32N 51°25' E 002°39'0 0.0
2014-Aug-11 18:32N 51°25' E 002°39'0 0.1
2014-Aug-11 17:32N 51°25' E 002°39'0 0.0
2014-Aug-11 16:29N 51°25' E 002°39'0 0.0
2014-Aug-11 15:32N 51°25' E 002°39'0 0.0
2014-Aug-11 14:32N 51°25' E 002°39'0 0.0
2014-Aug-11 13:32N 51°25' E 002°39'0 0.0
2014-Aug-11 12:29N 51°25' E 002°39'0 0.0
2014-Aug-11 11:26N 51°25' E 002°39'0 0.1
2014-Aug-11 10:23N 51°25' E 002°38'0 0.2
2014-Aug-11 09:32N 51°25' E 002°38'0 0.0
2014-Aug-11 08:32N 51°25' E 002°38'0 0.1
2014-Aug-11 07:32N 51°25' E 002°38'0 0.2
2014-Aug-11 06:32N 51°25' E 002°39'0 0.0
2014-Aug-11 05:32N 51°25' E 002°39'0 0.0
2014-Aug-11 04:17N 51°25' E 002°39'0 0.0
2014-Aug-11 03:32N 51°25' E 002°39'0 0.0
2014-Aug-11 02:32N 51°25' E 002°39'0 0.0
2014-Aug-11 01:26N 51°25' E 002°39'0 0.0
2014-Aug-11 00:29N 51°25' E 002°39'0 0.0
2014-Aug-10 23:32N 51°25' E 002°39'0 0.0
2014-Aug-10 22:32N 51°25' E 002°39'0 0.0
2014-Aug-10 21:32N 51°25' E 002°39'0 0.2
2014-Aug-10 20:23N 51°25' E 002°38'0 0.1
2014-Aug-10 19:32N 51°25' E 002°39'0 0.1
2014-Aug-10 18:32N 51°25' E 002°39'0 0.0
2014-Aug-10 17:32N 51°25' E 002°39'0 0.0
2014-Aug-10 16:33N 51°25' E 002°39'0 0.4
2014-Aug-10 15:31N 51°26' E 002°39'0 0.1
2014-Aug-10 14:28N 51°26' E 002°39'0 0.1
2014-Aug-10 13:31N 51°26' E 002°39'0 0.0
2014-Aug-10 12:32N 51°26' E 002°39'0 0.0
2014-Aug-10 11:32N 51°26' E 002°39'0 0.0
2014-Aug-10 10:28N 51°26' E 002°39'0 0.1
2014-Aug-10 09:31N 51°26' E 002°39'0 0.1
2014-Aug-10 08:31N 51°26' E 002°39'0 0.0
2014-Aug-10 06:07N 51°26' E 002°39'0 0.1
2014-Aug-10 05:25N 51°26' E 002°39'0 0.1
2014-Aug-10 04:32N 51°26' E 002°39'  

Dump ship's entire track history